sensor_id;sensor_type;location;lat;lon;timestamp;temperature;humidity
74458;SHT31;62896;51.032;3.712;2024-02-21T00:00:52;9.8;90
74458;SHT31;62896;51.032;3.712;2024-02-21T00:04:12;9.8;90
74458;SHT31;62896;51.032;3.712;2024-02-21T00:07:32;9.6;90
74458;SHT31;62896;51.032;3.712;2024-02-21T00:10:52;9.6;90
74458;SHT31;62896;51.032;3.712;2024-02-21T00:14:12;9.6;90
74458;SHT31;62896;51.032;3.712;2024-02-21T00:17:32;9.6;91
74458;SHT31;62896;51.032;3.712;2024-02-21T00:20:52;9.6;91
74458;SHT31;62896;51.032;3.712;2024-02-21T00:24:12;9.6;91
74458;SHT31;62896;51.032;3.712;2024-02-21T00:27:32;9.5;91
74458;SHT31;62896;51.032;3.712;2024-02-21T00:30:52;9.5;91
74458;SHT31;62896;51.032;3.712;2024-02-21T00:34:12;9.5;91
74458;SHT31;62896;51.032;3.712;2024-02-21T00:37:32;9.3;93
74458;SHT31;62896;51.032;3.712;2024-02-21T00:40:52;9.3;93
74458;SHT31;62896;51.032;3.712;2024-02-21T00:44:12;9.3;93
74458;SHT31;62896;51.032;3.712;2024-02-21T00:47:32;9.2;94
74458;SHT31;62896;51.032;3.712;2024-02-21T00:50:52;9.2;94
74458;SHT31;62896;51.032;3.712;2024-02-21T00:54:12;9.2;94
74458;SHT31;62896;51.032;3.712;2024-02-21T00:57:32;9.1;95
74458;SHT31;62896;51.032;3.712;2024-02-21T01:00:52;9.1;95
74458;SHT31;62896;51.032;3.712;2024-02-21T01:04:12;9.1;95
74458;SHT31;62896;51.032;3.712;2024-02-21T01:07:32;9;96
74458;SHT31;62896;51.032;3.712;2024-02-21T01:10:52;9;96
74458;SHT31;62896;51.032;3.712;2024-02-21T01:14:12;9;96
74458;SHT31;62896;51.032;3.712;2024-02-21T01:17:32;8.9;96
74458;SHT31;62896;51.032;3.712;2024-02-21T01:20:52;8.9;96
74458;SHT31;62896;51.032;3.712;2024-02-21T01:24:12;8.9;96
74458;SHT31;62896;51.032;3.712;2024-02-21T01:27:32;8.9;96
74458;SHT31;62896;51.032;3.712;2024-02-21T01:30:52;8.9;96
74458;SHT31;62896;51.032;3.712;2024-02-21T01:34:12;8.9;96
74458;SHT31;62896;51.032;3.712;2024-02-21T01:37:32;8.8;96
74458;SHT31;62896;51.032;3.712;2024-02-21T01:40:52;8.8;96
74458;SHT31;62896;51.032;3.712;2024-02-21T01:44:13;8.8;96
74458;SHT31;62896;51.032;3.712;2024-02-21T01:47:32;8.8;96
74458;SHT31;62896;51.032;3.712;2024-02-21T01:50:53;8.8;96
74458;SHT31;62896;51.032;3.712;2024-02-21T01:54:12;8.8;96
74458;SHT31;62896;51.032;3.712;2024-02-21T01:57:32;8.8;96
74458;SHT31;62896;51.032;3.712;2024-02-21T02:00:52;8.8;96
74458;SHT31;62896;51.032;3.712;2024-02-21T02:04:12;8.8;96
74458;SHT31;62896;51.032;3.712;2024-02-21T02:07:32;8.7;96
74458;SHT31;62896;51.032;3.712;2024-02-21T02:10:52;8.7;96
74458;SHT31;62896;51.032;3.712;2024-02-21T02:14:12;8.7;96
74458;SHT31;62896;51.032;3.712;2024-02-21T02:17:32;8.8;96
74458;SHT31;62896;51.032;3.712;2024-02-21T02:20:52;8.8;96
74458;SHT31;62896;51.032;3.712;2024-02-21T02:24:12;8.8;96
74458;SHT31;62896;51.032;3.712;2024-02-21T02:27:32;8.7;96
74458;SHT31;62896;51.032;3.712;2024-02-21T02:30:52;8.7;96
74458;SHT31;62896;51.032;3.712;2024-02-21T02:34:12;8.7;96
74458;SHT31;62896;51.032;3.712;2024-02-21T02:37:32;8.6;96
74458;SHT31;62896;51.032;3.712;2024-02-21T02:40:52;8.6;96
74458;SHT31;62896;51.032;3.712;2024-02-21T02:44:12;8.6;96
74458;SHT31;62896;51.032;3.712;2024-02-21T02:47:32;8.5;96
74458;SHT31;62896;51.032;3.712;2024-02-21T02:50:52;8.5;96
74458;SHT31;62896;51.032;3.712;2024-02-21T02:54:12;8.5;96
74458;SHT31;62896;51.032;3.712;2024-02-21T02:57:32;8.5;96
74458;SHT31;62896;51.032;3.712;2024-02-21T03:00:52;8.5;96
74458;SHT31;62896;51.032;3.712;2024-02-21T03:04:12;8.5;96
74458;SHT31;62896;51.032;3.712;2024-02-21T03:07:32;8.4;96
74458;SHT31;62896;51.032;3.712;2024-02-21T03:10:52;8.4;96
74458;SHT31;62896;51.032;3.712;2024-02-21T03:14:12;8.4;96
74458;SHT31;62896;51.032;3.712;2024-02-21T03:17:32;8.4;96
74458;SHT31;62896;51.032;3.712;2024-02-21T03:20:52;8.4;96
74458;SHT31;62896;51.032;3.712;2024-02-21T03:24:12;8.4;96
74458;SHT31;62896;51.032;3.712;2024-02-21T03:27:32;8.4;96
74458;SHT31;62896;51.032;3.712;2024-02-21T03:30:52;8.4;96
74458;SHT31;62896;51.032;3.712;2024-02-21T03:34:12;8.4;96
74458;SHT31;62896;51.032;3.712;2024-02-21T03:37:32;8.4;96
74458;SHT31;62896;51.032;3.712;2024-02-21T03:40:52;8.4;96
74458;SHT31;62896;51.032;3.712;2024-02-21T03:44:12;8.4;96
74458;SHT31;62896;51.032;3.712;2024-02-21T03:47:32;8.5;96
74458;SHT31;62896;51.032;3.712;2024-02-21T03:50:52;8.5;96
74458;SHT31;62896;51.032;3.712;2024-02-21T03:54:12;8.5;96
74458;SHT31;62896;51.032;3.712;2024-02-21T03:57:32;8.5;96
74458;SHT31;62896;51.032;3.712;2024-02-21T04:00:52;8.5;96
74458;SHT31;62896;51.032;3.712;2024-02-21T04:04:12;8.5;96
74458;SHT31;62896;51.032;3.712;2024-02-21T04:07:32;8.5;96
74458;SHT31;62896;51.032;3.712;2024-02-21T04:10:52;8.5;96
74458;SHT31;62896;51.032;3.712;2024-02-21T04:14:12;8.5;96
74458;SHT31;62896;51.032;3.712;2024-02-21T04:17:32;8.6;96
74458;SHT31;62896;51.032;3.712;2024-02-21T04:20:52;8.6;96
74458;SHT31;62896;51.032;3.712;2024-02-21T04:24:12;8.6;96
74458;SHT31;62896;51.032;3.712;2024-02-21T04:27:32;8.6;96
74458;SHT31;62896;51.032;3.712;2024-02-21T04:30:52;8.6;96
74458;SHT31;62896;51.032;3.712;2024-02-21T04:34:12;8.6;96
74458;SHT31;62896;51.032;3.712;2024-02-21T04:37:32;8.5;96
74458;SHT31;62896;51.032;3.712;2024-02-21T04:40:52;8.5;96
74458;SHT31;62896;51.032;3.712;2024-02-21T04:44:12;8.5;96
74458;SHT31;62896;51.032;3.712;2024-02-21T04:47:32;8.5;96
74458;SHT31;62896;51.032;3.712;2024-02-21T04:50:52;8.5;96
74458;SHT31;62896;51.032;3.712;2024-02-21T04:54:12;8.5;96
74458;SHT31;62896;51.032;3.712;2024-02-21T04:57:32;8.5;96
74458;SHT31;62896;51.032;3.712;2024-02-21T05:00:52;8.5;96
74458;SHT31;62896;51.032;3.712;2024-02-21T05:04:12;8.5;96
74458;SHT31;62896;51.032;3.712;2024-02-21T05:07:32;8.6;96
74458;SHT31;62896;51.032;3.712;2024-02-21T05:10:52;8.6;96
74458;SHT31;62896;51.032;3.712;2024-02-21T05:14:12;8.6;96
74458;SHT31;62896;51.032;3.712;2024-02-21T05:17:32;8.6;96
74458;SHT31;62896;51.032;3.712;2024-02-21T05:20:52;8.6;96
74458;SHT31;62896;51.032;3.712;2024-02-21T05:24:12;8.6;96
74458;SHT31;62896;51.032;3.712;2024-02-21T05:27:32;8.6;96
74458;SHT31;62896;51.032;3.712;2024-02-21T05:30:52;8.6;96
74458;SHT31;62896;51.032;3.712;2024-02-21T05:34:12;8.6;96
74458;SHT31;62896;51.032;3.712;2024-02-21T05:37:32;8.6;96
74458;SHT31;62896;51.032;3.712;2024-02-21T05:40:52;8.6;96
74458;SHT31;62896;51.032;3.712;2024-02-21T05:44:12;8.6;96
74458;SHT31;62896;51.032;3.712;2024-02-21T05:47:32;8.6;96
74458;SHT31;62896;51.032;3.712;2024-02-21T05:50:52;8.6;96
74458;SHT31;62896;51.032;3.712;2024-02-21T05:54:12;8.6;96
74458;SHT31;62896;51.032;3.712;2024-02-21T05:57:32;8.6;96
74458;SHT31;62896;51.032;3.712;2024-02-21T06:00:52;8.6;96
74458;SHT31;62896;51.032;3.712;2024-02-21T06:04:12;8.6;96
74458;SHT31;62896;51.032;3.712;2024-02-21T06:07:32;8.6;96
74458;SHT31;62896;51.032;3.712;2024-02-21T06:10:52;8.6;96
74458;SHT31;62896;51.032;3.712;2024-02-21T06:14:12;8.6;96
74458;SHT31;62896;51.032;3.712;2024-02-21T06:17:32;8.6;96
74458;SHT31;62896;51.032;3.712;2024-02-21T06:20:52;8.6;96
74458;SHT31;62896;51.032;3.712;2024-02-21T06:24:12;8.6;96
74458;SHT31;62896;51.032;3.712;2024-02-21T06:27:32;8.7;96
74458;SHT31;62896;51.032;3.712;2024-02-21T06:30:52;8.7;96
74458;SHT31;62896;51.032;3.712;2024-02-21T06:34:12;8.7;96
74458;SHT31;62896;51.032;3.712;2024-02-21T06:37:32;8.7;96
74458;SHT31;62896;51.032;3.712;2024-02-21T06:40:52;8.7;96
74458;SHT31;62896;51.032;3.712;2024-02-21T06:44:12;8.7;96
74458;SHT31;62896;51.032;3.712;2024-02-21T06:47:32;8.7;95
74458;SHT31;62896;51.032;3.712;2024-02-21T06:50:52;8.7;95
74458;SHT31;62896;51.032;3.712;2024-02-21T06:54:12;8.7;95
74458;SHT31;62896;51.032;3.712;2024-02-21T06:57:32;8.7;95
74458;SHT31;62896;51.032;3.712;2024-02-21T07:00:52;8.7;95
74458;SHT31;62896;51.032;3.712;2024-02-21T07:04:12;8.7;95
74458;SHT31;62896;51.032;3.712;2024-02-21T07:07:32;8.7;95
74458;SHT31;62896;51.032;3.712;2024-02-21T07:10:52;8.7;95
74458;SHT31;62896;51.032;3.712;2024-02-21T07:14:13;8.7;95
74458;SHT31;62896;51.032;3.712;2024-02-21T07:17:32;8.8;95
74458;SHT31;62896;51.032;3.712;2024-02-21T07:20:52;8.8;95
74458;SHT31;62896;51.032;3.712;2024-02-21T07:24:12;8.8;95
74458;SHT31;62896;51.032;3.712;2024-02-21T07:27:32;8.8;94
74458;SHT31;62896;51.032;3.712;2024-02-21T07:30:52;8.8;94
74458;SHT31;62896;51.032;3.712;2024-02-21T07:34:12;8.8;94
74458;SHT31;62896;51.032;3.712;2024-02-21T07:37:32;8.8;94
74458;SHT31;62896;51.032;3.712;2024-02-21T07:40:52;8.8;94
74458;SHT31;62896;51.032;3.712;2024-02-21T07:44:12;8.8;94
74458;SHT31;62896;51.032;3.712;2024-02-21T07:47:32;8.9;94
74458;SHT31;62896;51.032;3.712;2024-02-21T07:50:52;8.9;94
74458;SHT31;62896;51.032;3.712;2024-02-21T07:54:12;8.9;94
74458;SHT31;62896;51.032;3.712;2024-02-21T07:57:32;8.9;94
74458;SHT31;62896;51.032;3.712;2024-02-21T08:00:52;8.9;94
74458;SHT31;62896;51.032;3.712;2024-02-21T08:04:12;8.9;94
74458;SHT31;62896;51.032;3.712;2024-02-21T08:07:32;9;94
74458;SHT31;62896;51.032;3.712;2024-02-21T08:10:52;9;94
74458;SHT31;62896;51.032;3.712;2024-02-21T08:14:12;9;94
74458;SHT31;62896;51.032;3.712;2024-02-21T08:17:32;9;94
74458;SHT31;62896;51.032;3.712;2024-02-21T08:20:52;9;94
74458;SHT31;62896;51.032;3.712;2024-02-21T08:24:12;9;94
74458;SHT31;62896;51.032;3.712;2024-02-21T08:27:32;9;94
74458;SHT31;62896;51.032;3.712;2024-02-21T08:30:52;9;94
74458;SHT31;62896;51.032;3.712;2024-02-21T08:34:12;9;94
74458;SHT31;62896;51.032;3.712;2024-02-21T08:37:32;9;94
74458;SHT31;62896;51.032;3.712;2024-02-21T08:40:52;9;94
74458;SHT31;62896;51.032;3.712;2024-02-21T08:44:12;9;94
74458;SHT31;62896;51.032;3.712;2024-02-21T08:47:32;9;93
74458;SHT31;62896;51.032;3.712;2024-02-21T08:50:52;9;93
74458;SHT31;62896;51.032;3.712;2024-02-21T08:54:12;9;93
74458;SHT31;62896;51.032;3.712;2024-02-21T08:57:32;9.1;93
74458;SHT31;62896;51.032;3.712;2024-02-21T09:00:52;9.1;93
74458;SHT31;62896;51.032;3.712;2024-02-21T09:04:12;9.1;93
74458;SHT31;62896;51.032;3.712;2024-02-21T09:07:32;9.1;92
74458;SHT31;62896;51.032;3.712;2024-02-21T09:10:52;9.1;92
74458;SHT31;62896;51.032;3.712;2024-02-21T09:14:12;9.1;92
74458;SHT31;62896;51.032;3.712;2024-02-21T09:17:32;9.2;92
74458;SHT31;62896;51.032;3.712;2024-02-21T09:20:52;9.2;92
74458;SHT31;62896;51.032;3.712;2024-02-21T09:24:12;9.2;92
74458;SHT31;62896;51.032;3.712;2024-02-21T09:27:32;9.4;91
74458;SHT31;62896;51.032;3.712;2024-02-21T09:30:52;9.4;91
74458;SHT31;62896;51.032;3.712;2024-02-21T09:34:12;9.4;91
74458;SHT31;62896;51.032;3.712;2024-02-21T09:37:32;9.4;90
74458;SHT31;62896;51.032;3.712;2024-02-21T09:40:54;9.4;90
74458;SHT31;62896;51.032;3.712;2024-02-21T09:44:13;9.4;90
74458;SHT31;62896;51.032;3.712;2024-02-21T09:47:33;9.4;90
74458;SHT31;62896;51.032;3.712;2024-02-21T09:50:53;9.4;90
74458;SHT31;62896;51.032;3.712;2024-02-21T09:54:12;9.4;90
74458;SHT31;62896;51.032;3.712;2024-02-21T09:57:32;9.6;90
74458;SHT31;62896;51.032;3.712;2024-02-21T10:00:52;9.6;90
74458;SHT31;62896;51.032;3.712;2024-02-21T10:04:12;9.6;90
74458;SHT31;62896;51.032;3.712;2024-02-21T10:07:32;9.6;90
74458;SHT31;62896;51.032;3.712;2024-02-21T10:10:52;9.6;90
74458;SHT31;62896;51.032;3.712;2024-02-21T10:14:12;9.6;90
74458;SHT31;62896;51.032;3.712;2024-02-21T10:17:32;9.7;90
74458;SHT31;62896;51.032;3.712;2024-02-21T10:20:59;9.7;90
74458;SHT31;62896;51.032;3.712;2024-02-21T10:24:12;9.7;90
74458;SHT31;62896;51.032;3.712;2024-02-21T10:27:32;9.8;89
74458;SHT31;62896;51.032;3.712;2024-02-21T10:30:52;9.8;89
74458;SHT31;62896;51.032;3.712;2024-02-21T10:34:12;9.8;89
74458;SHT31;62896;51.032;3.712;2024-02-21T10:37:32;9.9;89
74458;SHT31;62896;51.032;3.712;2024-02-21T10:40:52;9.9;89
74458;SHT31;62896;51.032;3.712;2024-02-21T10:44:12;9.9;89
74458;SHT31;62896;51.032;3.712;2024-02-21T10:47:32;9.9;89
74458;SHT31;62896;51.032;3.712;2024-02-21T10:50:53;9.9;89
74458;SHT31;62896;51.032;3.712;2024-02-21T10:54:17;9.9;89
74458;SHT31;62896;51.032;3.712;2024-02-21T10:57:32;9.9;89
74458;SHT31;62896;51.032;3.712;2024-02-21T11:00:52;9.9;89
74458;SHT31;62896;51.032;3.712;2024-02-21T11:04:12;9.9;89
74458;SHT31;62896;51.032;3.712;2024-02-21T11:07:32;9.8;89
74458;SHT31;62896;51.032;3.712;2024-02-21T11:10:56;9.8;89
74458;SHT31;62896;51.032;3.712;2024-02-21T11:14:17;9.8;89
74458;SHT31;62896;51.032;3.712;2024-02-21T11:17:32;9.8;89
74458;SHT31;62896;51.032;3.712;2024-02-21T11:20:52;9.8;89
74458;SHT31;62896;51.032;3.712;2024-02-21T11:24:12;9.8;89
74458;SHT31;62896;51.032;3.712;2024-02-21T11:27:33;9.7;89
74458;SHT31;62896;51.032;3.712;2024-02-21T11:30:52;9.7;89
74458;SHT31;62896;51.032;3.712;2024-02-21T11:34:12;9.7;89
74458;SHT31;62896;51.032;3.712;2024-02-21T11:37:33;9.8;89
74458;SHT31;62896;51.032;3.712;2024-02-21T11:47:32;9.8;89
74458;SHT31;62896;51.032;3.712;2024-02-21T11:50:53;9.8;89
74458;SHT31;62896;51.032;3.712;2024-02-21T11:54:12;9.8;89
74458;SHT31;62896;51.032;3.712;2024-02-21T11:57:32;9.8;88
74458;SHT31;62896;51.032;3.712;2024-02-21T12:00:52;9.8;88
74458;SHT31;62896;51.032;3.712;2024-02-21T12:04:12;9.8;88
74458;SHT31;62896;51.032;3.712;2024-02-21T12:07:32;9.9;88
74458;SHT31;62896;51.032;3.712;2024-02-21T12:10:52;9.9;88
74458;SHT31;62896;51.032;3.712;2024-02-21T12:14:15;9.9;88
74458;SHT31;62896;51.032;3.712;2024-02-21T12:17:32;9.9;88
74458;SHT31;62896;51.032;3.712;2024-02-21T12:20:52;9.9;88
74458;SHT31;62896;51.032;3.712;2024-02-21T12:24:13;9.9;88
74458;SHT31;62896;51.032;3.712;2024-02-21T12:27:32;10;88
74458;SHT31;62896;51.032;3.712;2024-02-21T12:30:52;10;88
74458;SHT31;62896;51.032;3.712;2024-02-21T12:34:12;10;88
74458;SHT31;62896;51.032;3.712;2024-02-21T12:37:32;10;87
74458;SHT31;62896;51.032;3.712;2024-02-21T12:40:52;10;87
74458;SHT31;62896;51.032;3.712;2024-02-21T12:44:12;10;87
74458;SHT31;62896;51.032;3.712;2024-02-21T12:47:32;10;87
74458;SHT31;62896;51.032;3.712;2024-02-21T12:50:52;10;87
74458;SHT31;62896;51.032;3.712;2024-02-21T12:54:12;10;87
74458;SHT31;62896;51.032;3.712;2024-02-21T12:57:32;10.1;87
74458;SHT31;62896;51.032;3.712;2024-02-21T13:00:52;10.1;87
74458;SHT31;62896;51.032;3.712;2024-02-21T13:04:12;10.1;87
74458;SHT31;62896;51.032;3.712;2024-02-21T13:07:32;10.1;87
74458;SHT31;62896;51.032;3.712;2024-02-21T13:10:52;10.1;87
74458;SHT31;62896;51.032;3.712;2024-02-21T13:14:13;10.1;87
74458;SHT31;62896;51.032;3.712;2024-02-21T13:17:32;10.1;88
74458;SHT31;62896;51.032;3.712;2024-02-21T13:20:52;10.1;88
74458;SHT31;62896;51.032;3.712;2024-02-21T13:24:12;10.1;88
74458;SHT31;62896;51.032;3.712;2024-02-21T13:27:32;10;90
74458;SHT31;62896;51.032;3.712;2024-02-21T13:30:52;10;90
74458;SHT31;62896;51.032;3.712;2024-02-21T13:34:12;10;90
74458;SHT31;62896;51.032;3.712;2024-02-21T13:37:32;10;92
74458;SHT31;62896;51.032;3.712;2024-02-21T13:40:52;10;92
74458;SHT31;62896;51.032;3.712;2024-02-21T13:44:12;10;92
74458;SHT31;62896;51.032;3.712;2024-02-21T13:47:33;10;92
74458;SHT31;62896;51.032;3.712;2024-02-21T13:50:52;10;92
74458;SHT31;62896;51.032;3.712;2024-02-21T13:54:12;10;92
74458;SHT31;62896;51.032;3.712;2024-02-21T13:57:32;9.9;93
74458;SHT31;62896;51.032;3.712;2024-02-21T14:00:52;9.9;93
74458;SHT31;62896;51.032;3.712;2024-02-21T14:04:12;9.9;93
74458;SHT31;62896;51.032;3.712;2024-02-21T14:07:32;9.9;94
74458;SHT31;62896;51.032;3.712;2024-02-21T14:10:53;9.9;94
74458;SHT31;62896;51.032;3.712;2024-02-21T14:14:12;9.9;94
74458;SHT31;62896;51.032;3.712;2024-02-21T14:17:32;9.8;94
74458;SHT31;62896;51.032;3.712;2024-02-21T14:20:52;9.8;94
74458;SHT31;62896;51.032;3.712;2024-02-21T14:24:12;9.8;94
74458;SHT31;62896;51.032;3.712;2024-02-21T14:27:32;9.7;95
74458;SHT31;62896;51.032;3.712;2024-02-21T14:30:52;9.7;95
74458;SHT31;62896;51.032;3.712;2024-02-21T14:34:12;9.7;95
74458;SHT31;62896;51.032;3.712;2024-02-21T14:37:32;9.7;95
74458;SHT31;62896;51.032;3.712;2024-02-21T14:40:52;9.7;95
74458;SHT31;62896;51.032;3.712;2024-02-21T14:44:12;9.7;95
74458;SHT31;62896;51.032;3.712;2024-02-21T14:47:33;9.6;96
74458;SHT31;62896;51.032;3.712;2024-02-21T14:50:52;9.6;96
74458;SHT31;62896;51.032;3.712;2024-02-21T14:54:13;9.6;96
74458;SHT31;62896;51.032;3.712;2024-02-21T14:57:33;9.5;96
74458;SHT31;62896;51.032;3.712;2024-02-21T15:00:53;9.5;96
74458;SHT31;62896;51.032;3.712;2024-02-21T15:04:12;9.5;96
74458;SHT31;62896;51.032;3.712;2024-02-21T15:07:33;9.5;97
74458;SHT31;62896;51.032;3.712;2024-02-21T15:10:53;9.5;97
74458;SHT31;62896;51.032;3.712;2024-02-21T15:14:12;9.5;97
74458;SHT31;62896;51.032;3.712;2024-02-21T15:17:32;9.5;97
74458;SHT31;62896;51.032;3.712;2024-02-21T15:20:53;9.5;97
74458;SHT31;62896;51.032;3.712;2024-02-21T15:24:13;9.5;97
74458;SHT31;62896;51.032;3.712;2024-02-21T15:27:33;9.5;98
74458;SHT31;62896;51.032;3.712;2024-02-21T15:30:53;9.5;98
74458;SHT31;62896;51.032;3.712;2024-02-21T15:34:13;9.5;98
74458;SHT31;62896;51.032;3.712;2024-02-21T15:37:33;9.5;98
74458;SHT31;62896;51.032;3.712;2024-02-21T15:40:53;9.5;98
74458;SHT31;62896;51.032;3.712;2024-02-21T15:44:13;9.5;98
74458;SHT31;62896;51.032;3.712;2024-02-21T15:47:33;9.5;98
74458;SHT31;62896;51.032;3.712;2024-02-21T15:50:53;9.5;98
74458;SHT31;62896;51.032;3.712;2024-02-21T15:54:13;9.5;98
74458;SHT31;62896;51.032;3.712;2024-02-21T15:57:33;9.5;98
74458;SHT31;62896;51.032;3.712;2024-02-21T16:00:53;9.5;98
74458;SHT31;62896;51.032;3.712;2024-02-21T16:04:13;9.5;98
74458;SHT31;62896;51.032;3.712;2024-02-21T16:07:33;9.5;98
74458;SHT31;62896;51.032;3.712;2024-02-21T16:10:53;9.5;98
74458;SHT31;62896;51.032;3.712;2024-02-21T16:14:13;9.5;98
74458;SHT31;62896;51.032;3.712;2024-02-21T16:17:33;9.5;99
74458;SHT31;62896;51.032;3.712;2024-02-21T16:20:53;9.5;99
74458;SHT31;62896;51.032;3.712;2024-02-21T16:24:13;9.5;99
74458;SHT31;62896;51.032;3.712;2024-02-21T16:27:33;9.5;99
74458;SHT31;62896;51.032;3.712;2024-02-21T16:30:53;9.5;99
74458;SHT31;62896;51.032;3.712;2024-02-21T16:34:13;9.5;99
74458;SHT31;62896;51.032;3.712;2024-02-21T16:37:33;9.5;99
74458;SHT31;62896;51.032;3.712;2024-02-21T16:40:53;9.5;99
74458;SHT31;62896;51.032;3.712;2024-02-21T16:44:13;9.5;99
74458;SHT31;62896;51.032;3.712;2024-02-21T16:47:33;9.5;99
74458;SHT31;62896;51.032;3.712;2024-02-21T16:50:53;9.5;99
74458;SHT31;62896;51.032;3.712;2024-02-21T16:54:13;9.5;99
74458;SHT31;62896;51.032;3.712;2024-02-21T16:57:33;9.5;99
74458;SHT31;62896;51.032;3.712;2024-02-21T17:00:53;9.5;99
74458;SHT31;62896;51.032;3.712;2024-02-21T17:04:13;9.5;99
74458;SHT31;62896;51.032;3.712;2024-02-21T17:07:33;9.5;100
74458;SHT31;62896;51.032;3.712;2024-02-21T17:10:53;9.5;100
74458;SHT31;62896;51.032;3.712;2024-02-21T17:14:13;9.5;100
74458;SHT31;62896;51.032;3.712;2024-02-21T17:17:33;9.5;100
74458;SHT31;62896;51.032;3.712;2024-02-21T17:20:53;9.5;100
74458;SHT31;62896;51.032;3.712;2024-02-21T17:24:13;9.5;100
74458;SHT31;62896;51.032;3.712;2024-02-21T17:27:33;9.5;100
74458;SHT31;62896;51.032;3.712;2024-02-21T17:30:53;9.5;100
74458;SHT31;62896;51.032;3.712;2024-02-21T17:34:13;9.5;100
74458;SHT31;62896;51.032;3.712;2024-02-21T17:37:33;9.6;100
74458;SHT31;62896;51.032;3.712;2024-02-21T17:40:53;9.6;100
74458;SHT31;62896;51.032;3.712;2024-02-21T17:44:13;9.6;100
74458;SHT31;62896;51.032;3.712;2024-02-21T17:47:33;9.6;100
74458;SHT31;62896;51.032;3.712;2024-02-21T17:50:53;9.6;100
74458;SHT31;62896;51.032;3.712;2024-02-21T17:54:13;9.6;100
74458;SHT31;62896;51.032;3.712;2024-02-21T17:57:33;9.6;99
74458;SHT31;62896;51.032;3.712;2024-02-21T18:00:53;9.6;99
74458;SHT31;62896;51.032;3.712;2024-02-21T18:04:13;9.6;99
74458;SHT31;62896;51.032;3.712;2024-02-21T18:07:33;9.6;100
74458;SHT31;62896;51.032;3.712;2024-02-21T18:10:53;9.6;100
74458;SHT31;62896;51.032;3.712;2024-02-21T18:14:13;9.6;100
74458;SHT31;62896;51.032;3.712;2024-02-21T18:17:33;9.6;100
74458;SHT31;62896;51.032;3.712;2024-02-21T18:20:53;9.6;100
74458;SHT31;62896;51.032;3.712;2024-02-21T18:24:13;9.6;100
74458;SHT31;62896;51.032;3.712;2024-02-21T18:27:33;9.6;100
74458;SHT31;62896;51.032;3.712;2024-02-21T18:30:53;9.6;100
74458;SHT31;62896;51.032;3.712;2024-02-21T18:34:13;9.6;100
74458;SHT31;62896;51.032;3.712;2024-02-21T18:37:33;9.7;100
74458;SHT31;62896;51.032;3.712;2024-02-21T18:40:53;9.7;100
74458;SHT31;62896;51.032;3.712;2024-02-21T18:44:13;9.7;100
74458;SHT31;62896;51.032;3.712;2024-02-21T18:47:33;9.7;100
74458;SHT31;62896;51.032;3.712;2024-02-21T18:50:53;9.7;100
74458;SHT31;62896;51.032;3.712;2024-02-21T18:54:13;9.7;100
74458;SHT31;62896;51.032;3.712;2024-02-21T18:57:32;9.7;100
74458;SHT31;62896;51.032;3.712;2024-02-21T19:00:52;9.7;100
74458;SHT31;62896;51.032;3.712;2024-02-21T19:04:12;9.7;100
74458;SHT31;62896;51.032;3.712;2024-02-21T19:07:32;9.7;100
74458;SHT31;62896;51.032;3.712;2024-02-21T19:10:52;9.7;100
74458;SHT31;62896;51.032;3.712;2024-02-21T19:14:12;9.7;100
74458;SHT31;62896;51.032;3.712;2024-02-21T19:17:32;9.7;100
74458;SHT31;62896;51.032;3.712;2024-02-21T19:20:52;9.7;100
74458;SHT31;62896;51.032;3.712;2024-02-21T19:24:12;9.7;100
74458;SHT31;62896;51.032;3.712;2024-02-21T19:27:32;9.7;100
74458;SHT31;62896;51.032;3.712;2024-02-21T19:30:52;9.7;100
74458;SHT31;62896;51.032;3.712;2024-02-21T19:34:12;9.7;100
74458;SHT31;62896;51.032;3.712;2024-02-21T19:37:32;9.8;100
74458;SHT31;62896;51.032;3.712;2024-02-21T19:40:52;9.8;100
74458;SHT31;62896;51.032;3.712;2024-02-21T19:44:12;9.8;100
74458;SHT31;62896;51.032;3.712;2024-02-21T19:47:32;9.8;100
74458;SHT31;62896;51.032;3.712;2024-02-21T19:50:53;9.8;100
74458;SHT31;62896;51.032;3.712;2024-02-21T19:54:12;9.8;100
74458;SHT31;62896;51.032;3.712;2024-02-21T19:57:32;9.9;100
74458;SHT31;62896;51.032;3.712;2024-02-21T20:00:52;9.9;100
74458;SHT31;62896;51.032;3.712;2024-02-21T20:04:12;9.9;100
74458;SHT31;62896;51.032;3.712;2024-02-21T20:07:32;9.9;100
74458;SHT31;62896;51.032;3.712;2024-02-21T20:10:52;9.9;100
74458;SHT31;62896;51.032;3.712;2024-02-21T20:14:12;9.9;100
74458;SHT31;62896;51.032;3.712;2024-02-21T20:17:32;10;100
74458;SHT31;62896;51.032;3.712;2024-02-21T20:20:52;10;100
74458;SHT31;62896;51.032;3.712;2024-02-21T20:24:12;10;100
74458;SHT31;62896;51.032;3.712;2024-02-21T20:27:32;10;100
74458;SHT31;62896;51.032;3.712;2024-02-21T20:30:52;10;100
74458;SHT31;62896;51.032;3.712;2024-02-21T20:34:12;10;100
74458;SHT31;62896;51.032;3.712;2024-02-21T20:37:32;10.1;100
74458;SHT31;62896;51.032;3.712;2024-02-21T20:40:52;10.1;100
74458;SHT31;62896;51.032;3.712;2024-02-21T20:44:12;10.1;100
74458;SHT31;62896;51.032;3.712;2024-02-21T20:47:32;10.1;100
74458;SHT31;62896;51.032;3.712;2024-02-21T20:50:52;10.1;100
74458;SHT31;62896;51.032;3.712;2024-02-21T20:54:12;10.1;100
74458;SHT31;62896;51.032;3.712;2024-02-21T20:57:32;10.1;100
74458;SHT31;62896;51.032;3.712;2024-02-21T21:00:52;10.1;100
74458;SHT31;62896;51.032;3.712;2024-02-21T21:04:12;10.1;100
74458;SHT31;62896;51.032;3.712;2024-02-21T21:07:32;10.1;100
74458;SHT31;62896;51.032;3.712;2024-02-21T21:10:52;10.1;100
74458;SHT31;62896;51.032;3.712;2024-02-21T21:14:12;10.1;100
74458;SHT31;62896;51.032;3.712;2024-02-21T21:17:32;10.2;100
74458;SHT31;62896;51.032;3.712;2024-02-21T21:20:52;10.2;100
74458;SHT31;62896;51.032;3.712;2024-02-21T21:24:12;10.2;100
74458;SHT31;62896;51.032;3.712;2024-02-21T21:27:32;10.1;100
74458;SHT31;62896;51.032;3.712;2024-02-21T21:30:52;10.1;100
74458;SHT31;62896;51.032;3.712;2024-02-21T21:34:12;10.1;100
74458;SHT31;62896;51.032;3.712;2024-02-21T21:37:33;10.1;100
74458;SHT31;62896;51.032;3.712;2024-02-21T21:40:52;10.1;100
74458;SHT31;62896;51.032;3.712;2024-02-21T21:44:12;10.1;100
74458;SHT31;62896;51.032;3.712;2024-02-21T21:47:32;10.2;100
74458;SHT31;62896;51.032;3.712;2024-02-21T21:50:52;10.2;100
74458;SHT31;62896;51.032;3.712;2024-02-21T21:54:12;10.2;100
74458;SHT31;62896;51.032;3.712;2024-02-21T21:57:32;10.2;100
74458;SHT31;62896;51.032;3.712;2024-02-21T22:00:52;10.2;100
74458;SHT31;62896;51.032;3.712;2024-02-21T22:04:12;10.2;100
74458;SHT31;62896;51.032;3.712;2024-02-21T22:07:32;10.2;100
74458;SHT31;62896;51.032;3.712;2024-02-21T22:10:52;10.2;100
74458;SHT31;62896;51.032;3.712;2024-02-21T22:14:12;10.2;100
74458;SHT31;62896;51.032;3.712;2024-02-21T22:17:32;10.3;100
74458;SHT31;62896;51.032;3.712;2024-02-21T22:20:52;10.3;100
74458;SHT31;62896;51.032;3.712;2024-02-21T22:24:12;10.3;100
74458;SHT31;62896;51.032;3.712;2024-02-21T22:27:32;10.3;100
74458;SHT31;62896;51.032;3.712;2024-02-21T22:30:52;10.3;100
74458;SHT31;62896;51.032;3.712;2024-02-21T22:34:12;10.3;100
74458;SHT31;62896;51.032;3.712;2024-02-21T22:37:32;10.3;100
74458;SHT31;62896;51.032;3.712;2024-02-21T22:40:52;10.3;100
74458;SHT31;62896;51.032;3.712;2024-02-21T22:44:12;10.3;100
74458;SHT31;62896;51.032;3.712;2024-02-21T22:47:32;10.4;100
74458;SHT31;62896;51.032;3.712;2024-02-21T22:50:52;10.4;100